Time;durP1;ratioP1;P1;durP2;ratioP2;P2;SDS_P1;SDS_P2;PMS_P1;PMS_P2;Temp;Humidity;BMP_temperature;BMP_pressure;BME280_temperature;BME280_humidity;BME280_pressure;Samples;Min_cycle;Max_cycle;Signal;HPM_P1;HPM_P2
2022/03/03 00:00:08;;;;;;;29.73;18.13;;;2.40;94.10;;;;;;4931578;29;20230;-87
2022/03/03 00:02:37;;;;;;;28.30;21.88;;;2.40;94.20;;;;;;4922346;29;20245;-86
2022/03/03 00:05:05;;;;;;;28.38;21.63;;;2.30;94.20;;;;;;4922893;29;20226;-87
2022/03/03 00:07:32;;;;;;;24.40;19.27;;;2.30;94.40;;;;;;4927742;29;20210;-90
2022/03/03 00:09:58;;;;;;;32.25;21.42;;;2.30;94.60;;;;;;4928674;29;20215;-87
2022/03/03 00:12:27;;;;;;;24.90;20.00;;;2.20;94.70;;;;;;4919863;29;20211;-88
2022/03/03 00:14:54;;;;;;;23.83;20.05;;;2.30;94.90;;;;;;4922666;29;20209;-86
2022/03/03 00:17:21;;;;;;;26.02;19.77;;;2.20;94.90;;;;;;4921809;29;20713;-88
2022/03/03 00:19:49;;;;;;;31.75;23.00;;;2.20;95.00;;;;;;4922177;29;20195;-87
2022/03/03 00:22:16;;;;;;;31.20;20.73;;;2.20;95.10;;;;;;4921094;29;20301;-86
2022/03/03 00:24:43;;;;;;;29.27;21.98;;;2.10;95.30;;;;;;4931551;29;20255;-86
2022/03/03 00:27:11;;;;;;;25.10;20.05;;;2.00;95.40;;;;;;4941642;29;20219;-86
2022/03/03 00:29:37;;;;;;;27.10;21.55;;;2.00;95.70;;;;;;4929169;29;20646;-86
2022/03/03 00:32:05;;;;;;;29.70;20.40;;;2.00;96.00;;;;;;4941096;29;20188;-89
2022/03/03 00:34:32;;;;;;;26.13;21.60;;;2.00;96.40;;;;;;4940793;29;20183;-88
2022/03/03 00:37:01;;;;;;;29.80;20.90;;;2.00;96.70;;;;;;4933338;29;20245;-88
2022/03/03 00:39:27;;;;;;;27.92;20.30;;;2.00;96.50;;;;;;4946319;29;20213;-87
2022/03/03 00:41:54;;;;;;;38.70;23.50;;;2.10;96.40;;;;;;4921337;29;20203;-87
2022/03/03 00:44:21;;;;;;;28.73;21.33;;;2.10;96.20;;;;;;4920331;29;20227;-87
2022/03/03 00:46:48;;;;;;;34.03;20.98;;;2.00;96.30;;;;;;4920593;29;20589;-87
2022/03/03 00:49:15;;;;;;;30.48;21.98;;;2.00;96.50;;;;;;4920059;29;20666;-87
2022/03/03 00:51:41;;;;;;;31.17;20.95;;;2.10;97.00;;;;;;4919960;29;20201;-87
2022/03/03 00:54:10;;;;;;;28.52;20.85;;;2.00;96.70;;;;;;4926793;29;20214;-88
2022/03/03 00:56:37;;;;;;;27.00;19.50;;;2.00;97.30;;;;;;4921864;29;20212;-87
2022/03/03 00:59:04;;;;;;;30.83;21.80;;;1.90;97.20;;;;;;4923099;29;20221;-86
2022/03/03 01:01:31;;;;;;;27.77;20.88;;;2.00;97.30;;;;;;4947973;29;20201;-87
2022/03/03 01:03:58;;;;;;;28.63;22.00;;;1.90;97.20;;;;;;4951476;28;20218;-90
2022/03/03 01:06:25;;;;;;;27.27;21.45;;;1.90;97.30;;;;;;4939720;29;20201;-87
2022/03/03 01:08:52;;;;;;;29.67;24.27;;;1.90;97.50;;;;;;4948171;29;20220;-87
2022/03/03 01:11:20;;;;;;;33.30;21.50;;;1.90;97.40;;;;;;4921395;29;20210;-87
2022/03/03 01:13:47;;;;;;;27.20;22.50;;;1.90;97.20;;;;;;4939870;29;20226;-87
2022/03/03 01:16:14;;;;;;;27.70;22.20;;;1.90;97.00;;;;;;4948650;29;20206;-86
2022/03/03 01:18:42;;;;;;;29.77;20.73;;;1.90;97.10;;;;;;4963745;28;20217;-90
2022/03/03 01:21:09;;;;;;;28.25;23.58;;;1.80;97.40;;;;;;4952707;28;20209;-87
2022/03/03 01:23:36;;;;;;;31.75;23.42;;;1.80;97.70;;;;;;4962033;29;20209;-92
2022/03/03 01:26:03;;;;;;;29.80;23.25;;;1.80;97.80;;;;;;4930762;29;20235;-87
2022/03/03 01:28:31;;;;;;;29.27;22.42;;;1.90;98.00;;;;;;4931436;29;20230;-86
2022/03/03 01:30:58;;;;;;;31.13;22.38;;;1.80;97.80;;;;;;4944312;29;20206;-86
2022/03/03 01:33:25;;;;;;;27.17;22.65;;;1.80;97.80;;;;;;4959996;28;20212;-90
2022/03/03 01:35:51;;;;;;;30.50;22.35;;;1.70;97.60;;;;;;4946668;28;20541;-86
2022/03/03 01:38:18;;;;;;;26.88;23.90;;;1.60;97.60;;;;;;4925001;29;20229;-86
2022/03/03 01:40:45;;;;;;;30.17;22.30;;;1.60;97.80;;;;;;4923972;29;20202;-86
2022/03/03 01:43:12;;;;;;;29.75;22.35;;;1.60;97.70;;;;;;4928316;29;20214;-86
2022/03/03 01:45:40;;;;;;;29.35;21.85;;;1.60;97.50;;;;;;4942985;29;20567;-86
2022/03/03 01:48:07;;;;;;;28.08;20.85;;;1.60;97.50;;;;;;4929219;29;20229;-87
2022/03/03 01:50:34;;;;;;;27.45;20.88;;;1.60;97.40;;;;;;4925998;29;20194;-87
2022/03/03 01:53:01;;;;;;;30.50;22.95;;;1.50;97.30;;;;;;4925931;29;20218;-86
2022/03/03 01:55:28;;;;;;;26.45;20.80;;;1.40;97.60;;;;;;4935225;29;20198;-87
2022/03/03 01:57:58;;;;;;;24.40;21.05;;;1.40;97.90;;;;;;4926918;29;20253;-87
2022/03/03 02:00:25;;;;;;;33.97;22.30;;;1.40;98.10;;;;;;4924285;29;20213;-87
2022/03/03 02:02:53;;;;;;;28.48;20.30;;;1.40;98.30;;;;;;4922764;29;20677;-87
2022/03/03 02:05:20;;;;;;;29.58;22.48;;;1.40;98.40;;;;;;4927918;29;20227;-87
2022/03/03 02:07:46;;;;;;;25.90;19.13;;;1.40;98.50;;;;;;4942134;29;20309;-87
2022/03/03 02:10:13;;;;;;;25.95;20.30;;;1.40;98.50;;;;;;4944573;29;20206;-87
2022/03/03 02:12:40;;;;;;;27.65;20.80;;;1.40;98.30;;;;;;4944942;29;20206;-87
2022/03/03 02:15:08;;;;;;;28.45;21.90;;;1.40;98.30;;;;;;4927306;29;20217;-87
2022/03/03 02:17:35;;;;;;;32.45;23.33;;;1.40;98.50;;;;;;4926593;29;20222;-87
2022/03/03 02:20:07;;;;;;;29.75;21.67;;;1.40;98.70;;;;;;4951397;29;20190;-88
2022/03/03 02:22:35;;;;;;;30.73;22.77;;;1.30;98.70;;;;;;4953728;29;20213;-88
2022/03/03 02:25:02;;;;;;;30.20;22.33;;;1.30;98.80;;;;;;4958070;28;20258;-89
2022/03/03 02:27:30;;;;;;;29.33;22.15;;;1.30;98.80;;;;;;4963149;28;20244;-91
2022/03/03 02:29:58;;;;;;;33.20;23.23;;;1.30;98.90;;;;;;4951650;28;20229;-87
2022/03/03 02:32:25;;;;;;;29.05;22.05;;;1.30;99.00;;;;;;4948757;29;20210;-87
2022/03/03 02:34:52;;;;;;;25.73;20.60;;;1.30;98.90;;;;;;4951276;29;20213;-86
2022/03/03 02:37:20;;;;;;;26.90;21.35;;;1.30;99.00;;;;;;4931765;29;20232;-86
2022/03/03 02:39:47;;;;;;;26.77;20.08;;;1.20;99.10;;;;;;4943162;29;20257;-87
2022/03/03 02:42:14;;;;;;;29.25;21.98;;;1.20;99.30;;;;;;4940859;29;20206;-86
2022/03/03 02:44:41;;;;;;;29.05;22.92;;;1.20;99.20;;;;;;4929543;29;20214;-87
2022/03/03 02:47:08;;;;;;;26.98;20.75;;;1.10;98.90;;;;;;4924136;29;20229;-86
2022/03/03 02:49:35;;;;;;;26.42;22.35;;;1.10;99.10;;;;;;4905621;29;20210;-86
2022/03/03 02:52:01;;;;;;;30.17;20.35;;;1.10;99.30;;;;;;4917914;29;20191;-87
2022/03/03 02:54:30;;;;;;;28.90;21.35;;;1.00;99.40;;;;;;4924220;29;20254;-87
2022/03/03 02:59:41;;;;;;;27.67;21.17;;;0.90;99.20;;;;;;4916942;29;20243;-87
2022/03/03 03:02:07;;;;;;;27.30;20.60;;;0.90;99.60;;;;;;4904524;29;20234;-87
2022/03/03 03:04:34;;;;;;;30.25;21.88;;;0.90;99.70;;;;;;4902955;29;20582;-87
2022/03/03 03:07:01;;;;;;;26.75;20.75;;;0.80;99.60;;;;;;4902497;29;20250;-87
2022/03/03 03:09:30;;;;;;;27.27;19.65;;;0.80;99.80;;;;;;4934169;29;20225;-87
2022/03/03 03:11:57;;;;;;;24.40;20.23;;;0.80;99.90;;;;;;4920581;29;20297;-87
2022/03/03 03:14:24;;;;;;;26.67;19.52;;;0.90;99.90;;;;;;4928900;29;20203;-88
2022/03/03 03:16:50;;;;;;;24.10;19.15;;;0.80;99.90;;;;;;4939719;29;20234;-87
2022/03/03 03:19:19;;;;;;;27.95;21.00;;;0.80;99.90;;;;;;4951775;29;20200;-89
2022/03/03 03:21:46;;;;;;;24.20;19.10;;;0.80;99.80;;;;;;4951419;28;20226;-87
2022/03/03 03:24:14;;;;;;;28.73;21.23;;;0.70;99.60;;;;;;4940796;29;20338;-87
2022/03/03 03:26:42;;;;;;;25.10;19.52;;;0.70;99.70;;;;;;4940771;29;20704;-87
2022/03/03 03:29:09;;;;;;;25.75;18.83;;;0.70;99.60;;;;;;4940940;29;20212;-86
2022/03/03 03:31:36;;;;;;;29.52;21.35;;;0.70;99.50;;;;;;4958992;28;20210;-91
2022/03/03 03:34:03;;;;;;;26.38;19.50;;;0.70;99.20;;;;;;4950053;28;20278;-86
2022/03/03 03:36:29;;;;;;;27.63;20.30;;;0.80;99.20;;;;;;4935535;29;20223;-90
2022/03/03 03:38:57;;;;;;;32.17;19.77;;;0.70;98.60;;;;;;4932679;29;20574;-86
2022/03/03 03:41:24;;;;;;;25.58;21.20;;;0.70;98.60;;;;;;4945473;29;20669;-86
2022/03/03 03:43:52;;;;;;;31.30;21.83;;;0.60;98.70;;;;;;4946955;29;20209;-85
2022/03/03 03:46:19;;;;;;;26.48;21.35;;;0.60;98.80;;;;;;4932962;29;20231;-85
2022/03/03 03:48:46;;;;;;;25.05;20.15;;;0.60;98.90;;;;;;4932621;29;20290;-86
2022/03/03 03:51:12;;;;;;;27.50;21.50;;;0.60;98.90;;;;;;4932313;29;20202;-87
2022/03/03 03:53:39;;;;;;;30.95;23.10;;;0.60;98.90;;;;;;4928846;29;20266;-86
2022/03/03 03:56:06;;;;;;;29.17;21.05;;;0.60;99.10;;;;;;4908418;29;20208;-86
2022/03/03 03:58:33;;;;;;;31.42;21.30;;;0.50;99.10;;;;;;4906066;29;20242;-87
2022/03/03 04:01:02;;;;;;;29.00;22.83;;;0.50;99.40;;;;;;4912265;29;20369;-91
2022/03/03 04:03:28;;;;;;;33.88;22.33;;;0.50;99.70;;;;;;4945416;28;20190;-87
2022/03/03 04:05:56;;;;;;;26.63;22.20;;;0.50;99.80;;;;;;4952243;29;20210;-89
2022/03/03 04:08:22;;;;;;;28.38;22.30;;;0.50;99.70;;;;;;4952034;29;20234;-87
2022/03/03 04:10:49;;;;;;;28.83;21.13;;;0.50;99.80;;;;;;4933370;29;20209;-88
2022/03/03 04:13:16;;;;;;;27.58;22.08;;;0.50;99.70;;;;;;4938632;29;20762;-86
2022/03/03 04:15:43;;;;;;;26.15;21.50;;;0.50;99.90;;;;;;4944654;29;20216;-88
2022/03/03 04:18:11;;;;;;;33.30;23.00;;;0.60;99.70;;;;;;4943291;29;20222;-86
2022/03/03 04:20:38;;;;;;;30.08;22.85;;;0.60;99.60;;;;;;4955252;28;20190;-89
2022/03/03 04:23:05;;;;;;;32.10;21.58;;;0.60;99.70;;;;;;4960628;28;20246;-90
2022/03/03 04:25:33;;;;;;;31.48;22.25;;;0.60;99.60;;;;;;4941285;28;20214;-87
2022/03/03 04:28:18;;;;;;;31.80;22.45;;;0.70;99.80;;;;;;4937826;29;20236;-86
2022/03/03 04:30:50;;;;;;;31.27;23.33;;;0.70;99.70;;;;;;4921690;29;20191;-86
2022/03/03 04:33:26;;;;;;;30.95;21.25;;;0.60;99.70;;;;;;4920603;29;20204;-87
2022/03/03 04:35:53;;;;;;;32.08;23.10;;;0.60;99.80;;;;;;4920108;29;20199;-88
2022/03/03 04:38:20;;;;;;;29.30;22.77;;;0.70;99.70;;;;;;4920729;29;20635;-86
2022/03/03 04:41:02;;;;;;;27.27;21.80;;;0.60;99.90;;;;;;4947625;29;20839;-88
2022/03/03 04:43:29;;;;;;;33.42;21.55;;;0.70;99.90;;;;;;4948014;28;20198;-87
2022/03/03 04:45:56;;;;;;;28.33;21.60;;;0.70;99.60;;;;;;4924696;29;20229;-87
2022/03/03 04:48:29;;;;;;;37.88;23.50;;;0.70;99.40;;;;;;4934979;28;20230;-90
2022/03/03 04:50:58;;;;;;;27.88;23.05;;;0.70;99.60;;;;;;4959262;28;20205;-82
2022/03/03 04:53:25;;;;;;;27.48;22.50;;;0.70;99.30;;;;;;4945128;28;20186;-82
2022/03/03 04:55:52;;;;;;;38.25;23.98;;;0.70;99.30;;;;;;4933388;28;20223;-87
2022/03/03 04:58:19;;;;;;;35.25;23.85;;;0.60;99.10;;;;;;4931946;29;20231;-87
2022/03/03 05:01:05;;;;;;;30.58;21.48;;;0.70;99.60;;;;;;4922052;29;20214;-87
2022/03/03 05:03:52;;;;;;;29.98;22.70;;;0.70;99.20;;;;;;4925025;29;20191;-88
2022/03/03 05:06:20;;;;;;;29.05;21.90;;;0.70;98.90;;;;;;4923917;29;20228;-88
2022/03/03 05:08:47;;;;;;;29.88;22.27;;;0.70;98.70;;;;;;4932379;29;20232;-87
2022/03/03 05:11:22;;;;;;;26.75;20.30;;;0.60;98.90;;;;;;4927844;29;20293;-86
2022/03/03 05:13:51;;;;;;;28.33;20.40;;;0.60;98.90;;;;;;4925243;29;20205;-85
2022/03/03 05:16:18;;;;;;;27.15;21.38;;;0.50;98.90;;;;;;4918858;29;20968;-86
2022/03/03 05:18:45;;;;;;;29.70;22.88;;;0.60;98.90;;;;;;4933283;29;20237;-87
2022/03/03 05:21:12;;;;;;;25.50;21.60;;;0.60;99.00;;;;;;4923858;29;20279;-86
2022/03/03 05:23:41;;;;;;;28.30;22.40;;;0.60;98.60;;;;;;4925913;29;20221;-86
2022/03/03 05:26:08;;;;;;;30.20;22.50;;;0.60;98.50;;;;;;4930826;29;20245;-88
2022/03/03 05:28:35;;;;;;;34.67;22.60;;;0.60;98.50;;;;;;4932665;29;20223;-87
2022/03/03 05:31:02;;;;;;;35.53;21.27;;;0.60;98.50;;;;;;4922063;29;20229;-87
2022/03/03 05:33:29;;;;;;;32.55;22.85;;;0.60;98.60;;;;;;4923714;29;20285;-87
2022/03/03 05:36:00;;;;;;;28.63;22.08;;;0.60;98.70;;;;;;4933288;29;20209;-87
2022/03/03 05:38:30;;;;;;;32.60;22.75;;;0.50;99.00;;;;;;4931260;29;20287;-87
2022/03/03 05:40:58;;;;;;;28.33;21.35;;;0.50;99.30;;;;;;4927437;29;20222;-84
2022/03/03 05:43:27;;;;;;;33.03;23.45;;;0.50;99.30;;;;;;4929716;29;20206;-82
2022/03/03 05:45:56;;;;;;;30.70;21.60;;;0.40;99.30;;;;;;4942953;28;20220;-82
2022/03/03 05:48:24;;;;;;;32.55;23.02;;;0.40;99.50;;;;;;4944289;29;20282;-84
2022/03/03 05:50:51;;;;;;;32.15;24.98;;;0.40;99.40;;;;;;4939951;29;20202;-83
2022/03/03 05:53:18;;;;;;;39.25;24.13;;;0.40;99.40;;;;;;4941032;29;20575;-83
2022/03/03 05:55:48;;;;;;;32.55;23.42;;;0.30;99.40;;;;;;4943092;29;20206;-83
2022/03/03 05:58:19;;;;;;;40.15;24.70;;;0.30;99.60;;;;;;4946139;29;20293;-86
2022/03/03 06:00:47;;;;;;;32.35;24.15;;;0.30;99.60;;;;;;4927801;29;20234;-86
2022/03/03 06:03:16;;;;;;;33.22;23.05;;;0.30;99.90;;;;;;4933780;29;20206;-84
2022/03/03 06:05:49;;;;;;;28.95;23.02;;;0.40;99.90;;;;;;4931466;29;20202;-85
2022/03/03 06:08:18;;;;;;;33.47;23.85;;;0.40;99.60;;;;;;4933905;29;20219;-84
2022/03/03 06:10:51;;;;;;;31.33;24.20;;;0.50;99.50;;;;;;4927781;29;20199;-84
2022/03/03 06:13:23;;;;;;;34.95;24.92;;;0.40;99.00;;;;;;4936525;28;20190;-82
2022/03/03 06:15:50;;;;;;;40.45;23.98;;;0.40;98.80;;;;;;4946391;28;20195;-82
2022/03/03 06:18:20;;;;;;;30.13;22.63;;;0.40;99.00;;;;;;4937603;28;20227;-84
2022/03/03 06:20:55;;;;;;;33.22;22.27;;;0.50;98.80;;;;;;4943339;29;20350;-84
2022/03/03 06:23:23;;;;;;;35.47;24.10;;;0.50;98.80;;;;;;4939074;29;20214;-85
2022/03/03 06:26:03;;;;;;;38.85;25.50;;;0.50;98.80;;;;;;4947249;29;20202;-85
2022/03/03 06:28:31;;;;;;;33.70;24.38;;;0.50;98.80;;;;;;4943938;28;20203;-84
2022/03/03 06:30:58;;;;;;;33.17;24.67;;;0.50;98.90;;;;;;4936974;29;20199;-83
2022/03/03 06:33:28;;;;;;;36.90;25.10;;;0.60;99.00;;;;;;4931421;29;20225;-86
2022/03/03 06:35:55;;;;;;;29.67;23.20;;;0.60;99.00;;;;;;4920401;29;20206;-86
2022/03/03 06:38:22;;;;;;;31.90;23.83;;;0.60;98.70;;;;;;4945131;29;20233;-88
2022/03/03 06:40:49;;;;;;;42.42;25.88;;;0.70;98.70;;;;;;4911765;29;20191;-86
2022/03/03 06:43:16;;;;;;;37.58;25.30;;;0.70;98.70;;;;;;4919418;29;20301;-86
2022/03/03 06:45:45;;;;;;;33.53;23.23;;;0.70;98.70;;;;;;4947754;28;20179;-90
2022/03/03 06:48:13;;;;;;;40.80;23.85;;;0.80;98.80;;;;;;4947089;28;20242;-85
2022/03/03 06:50:42;;;;;;;34.30;24.98;;;0.80;98.60;;;;;;4949459;23;20226;-87
2022/03/03 06:53:09;;;;;;;34.97;24.40;;;0.90;98.40;;;;;;4941568;29;20253;-87
2022/03/03 06:55:37;;;;;;;43.10;28.13;;;0.90;98.10;;;;;;4923519;29;20207;-88
2022/03/03 06:58:04;;;;;;;37.83;26.95;;;0.90;98.20;;;;;;4936555;29;20225;-88
2022/03/03 07:00:34;;;;;;;38.97;25.08;;;0.90;98.20;;;;;;4937918;29;20230;-87
2022/03/03 07:03:02;;;;;;;36.55;25.45;;;0.90;98.10;;;;;;4937630;29;20265;-86
2022/03/03 07:05:30;;;;;;;46.30;29.20;;;1.00;98.10;;;;;;4939606;29;20206;-88
2022/03/03 07:07:58;;;;;;;36.42;25.58;;;1.00;98.30;;;;;;4943500;29;20226;-86
2022/03/03 07:10:26;;;;;;;39.65;27.38;;;1.10;98.20;;;;;;4929814;29;20777;-86
2022/03/03 07:12:54;;;;;;;35.80;25.33;;;1.10;97.80;;;;;;4930509;29;20210;-88
2022/03/03 07:15:21;;;;;;;35.55;23.63;;;1.20;97.60;;;;;;4939183;29;20253;-87
2022/03/03 07:17:51;;;;;;;32.83;25.55;;;1.30;97.60;;;;;;4921257;29;20238;-87
2022/03/03 07:20:24;;;;;;;36.50;25.73;;;1.30;97.70;;;;;;4901206;29;20253;-87
2022/03/03 07:23:02;;;;;;;37.70;24.55;;;1.30;97.60;;;;;;4916199;29;20193;-85
2022/03/03 07:25:38;;;;;;;30.02;23.95;;;1.40;97.30;;;;;;4927746;29;20203;-87
2022/03/03 07:28:08;;;;;;;32.20;22.63;;;1.50;96.60;;;;;;4935172;29;20218;-86
2022/03/03 07:30:41;;;;;;;30.83;24.92;;;1.70;96.30;;;;;;4918640;29;20226;-87
2022/03/03 07:33:11;;;;;;;31.00;24.30;;;1.80;95.80;;;;;;4927942;29;20260;-87
2022/03/03 07:35:42;;;;;;;32.70;23.73;;;1.90;95.50;;;;;;4937731;29;20202;-87
2022/03/03 07:38:14;;;;;;;29.08;22.58;;;2.00;95.30;;;;;;4918463;29;20237;-87
2022/03/03 07:40:42;;;;;;;29.25;23.23;;;2.10;95.00;;;;;;4936032;29;20743;-86
2022/03/03 07:43:09;;;;;;;33.75;25.23;;;2.00;94.80;;;;;;4921014;29;20207;-87
2022/03/03 07:45:36;;;;;;;32.03;25.77;;;2.00;94.90;;;;;;4928595;29;20210;-87
2022/03/03 07:48:02;;;;;;;33.33;23.48;;;2.10;94.80;;;;;;4926280;29;20724;-87
2022/03/03 07:50:30;;;;;;;27.35;23.00;;;2.30;94.60;;;;;;4927340;29;20611;-87
2022/03/03 07:52:58;;;;;;;28.90;22.55;;;2.30;94.20;;;;;;4934953;29;20205;-88
2022/03/03 07:55:25;;;;;;;28.77;21.98;;;2.40;94.10;;;;;;4926687;29;20213;-87
2022/03/03 07:57:59;;;;;;;28.42;23.05;;;2.50;93.90;;;;;;4937256;29;20210;-86
2022/03/03 08:00:28;;;;;;;54.25;25.23;;;2.60;93.50;;;;;;4942728;29;20223;-86
2022/03/03 08:02:58;;;;;;;36.42;24.00;;;2.80;93.10;;;;;;4935168;29;20203;-87
2022/03/03 08:05:29;;;;;;;34.72;25.02;;;2.90;92.90;;;;;;4952667;29;20218;-86
2022/03/03 08:07:58;;;;;;;36.90;25.25;;;2.80;92.50;;;;;;4936803;29;20214;-87
2022/03/03 08:10:27;;;;;;;36.90;27.55;;;3.00;92.30;;;;;;4945221;29;20237;-87
2022/03/03 08:12:56;;;;;;;34.45;26.50;;;3.10;92.10;;;;;;4937879;29;20191;-87
2022/03/03 08:15:23;;;;;;;34.50;26.17;;;3.40;91.70;;;;;;4932140;29;20206;-87
2022/03/03 08:17:51;;;;;;;37.08;27.27;;;3.80;90.90;;;;;;4939703;29;20283;-87
2022/03/03 08:20:19;;;;;;;30.13;24.88;;;4.00;90.10;;;;;;4954185;29;20254;-87
2022/03/03 08:22:46;;;;;;;30.45;24.08;;;4.00;88.70;;;;;;4947970;29;20202;-87
2022/03/03 08:25:15;;;;;;;29.47;24.73;;;4.60;89.10;;;;;;4929249;29;20206;-87
2022/03/03 08:27:42;;;;;;;33.67;25.40;;;6.30;87.10;;;;;;4939782;29;20483;-87
2022/03/03 08:30:11;;;;;;;32.80;25.37;;;7.90;80.10;;;;;;4956104;28;20462;-86
2022/03/03 08:32:39;;;;;;;31.90;25.70;;;9.20;72.90;;;;;;4941639;29;20451;-87
2022/03/03 08:35:14;;;;;;;35.83;27.70;;;9.30;67.50;;;;;;4926631;29;20450;-89
2022/03/03 08:37:43;;;;;;;33.80;27.13;;;8.80;66.50;;;;;;4907308;29;20454;-87
2022/03/03 08:40:12;;;;;;;31.27;24.67;;;9.00;67.60;;;;;;4918722;29;20474;-88
2022/03/03 08:42:45;;;;;;;31.50;27.57;;;9.40;65.90;;;;;;4921870;29;20956;-87
2022/03/03 08:45:12;;;;;;;34.53;26.80;;;9.00;64.50;;;;;;4953638;28;20434;-86
2022/03/03 08:47:41;;;;;;;30.00;24.30;;;9.40;66.00;;;;;;4919118;29;20477;-87
2022/03/03 08:50:13;;;;;;;31.27;26.80;;;10.00;63.00;;;;;;4935397;29;20496;-88
2022/03/03 08:52:42;;;;;;;30.53;25.93;;;10.30;61.40;;;;;;4933396;29;20446;-84
2022/03/03 08:55:11;;;;;;;28.50;25.60;;;10.60;59.60;;;;;;4931097;29;20450;-84
2022/03/03 08:57:37;;;;;;;27.63;24.73;;;11.10;58.70;;;;;;4920924;29;20451;-84
2022/03/03 09:00:09;;;;;;;30.60;25.07;;;11.20;57.70;;;;;;4949465;29;20462;-83
2022/03/03 09:02:35;;;;;;;28.27;25.33;;;10.30;58.10;;;;;;4902287;29;20459;-83
2022/03/03 09:05:03;;;;;;;27.07;23.97;;;10.30;59.90;;;;;;4919111;29;20829;-84
2022/03/03 09:07:31;;;;;;;28.73;25.43;;;11.60;58.10;;;;;;4917096;29;20911;-84
2022/03/03 09:09:57;;;;;;;29.10;26.20;;;12.60;56.50;;;;;;4918481;29;20865;-84
2022/03/03 09:12:24;;;;;;;28.27;24.77;;;13.60;54.70;;;;;;4917280;29;20460;-84
2022/03/03 09:14:51;;;;;;;27.70;24.67;;;14.40;52.60;;;;;;4916401;29;20455;-84
2022/03/03 09:17:19;;;;;;;29.53;26.20;;;14.60;51.00;;;;;;4924785;29;20447;-84
2022/03/03 09:19:47;;;;;;;28.80;25.83;;;14.90;50.30;;;;;;4919527;29;20547;-85
2022/03/03 09:22:13;;;;;;;27.10;24.37;;;15.90;49.60;;;;;;4918832;29;20455;-85
2022/03/03 09:24:40;;;;;;;27.90;24.90;;;17.00;47.90;;;;;;4925614;29;20449;-84
2022/03/03 09:27:08;;;;;;;27.63;24.83;;;18.10;46.30;;;;;;4918730;29;20478;-85
2022/03/03 09:29:36;;;;;;;28.23;25.00;;;18.90;44.20;;;;;;4917980;29;20965;-85
2022/03/03 09:32:06;;;;;;;27.30;24.40;;;18.10;43.00;;;;;;4916193;29;20876;-86
2022/03/03 09:34:34;;;;;;;25.57;23.17;;;18.30;43.20;;;;;;4932881;29;20458;-86
2022/03/03 09:37:01;;;;;;;27.30;24.37;;;18.40;43.10;;;;;;4935877;29;20821;-86
2022/03/03 09:39:28;;;;;;;25.03;22.93;;;17.80;42.80;;;;;;4925089;29;20463;-86
2022/03/03 09:41:55;;;;;;;26.13;23.63;;;18.10;42.70;;;;;;4926000;29;20486;-86
2022/03/03 09:44:22;;;;;;;27.00;24.57;;;18.40;42.40;;;;;;4918817;29;20831;-86
2022/03/03 09:46:49;;;;;;;26.67;24.03;;;19.10;42.00;;;;;;4923570;29;20510;-86
2022/03/03 09:49:16;;;;;;;27.03;24.73;;;18.40;40.60;;;;;;4919541;29;20944;-86
2022/03/03 09:51:44;;;;;;;26.83;24.33;;;18.30;41.50;;;;;;4930043;29;20545;-86
2022/03/03 09:54:11;;;;;;;25.03;22.70;;;18.70;40.80;;;;;;4939896;29;20534;-86
2022/03/03 09:56:45;;;;;;;27.20;24.37;;;18.70;40.10;;;;;;4958067;29;20462;-86
2022/03/03 09:59:15;;;;;;;26.87;24.47;;;20.00;39.50;;;;;;4960739;28;20734;-87
2022/03/03 10:01:42;;;;;;;25.37;22.90;;;18.60;39.00;;;;;;4952260;29;20471;-86
2022/03/03 10:04:17;;;;;;;28.13;24.63;;;18.60;39.70;;;;;;4939371;29;20472;-86
2022/03/03 10:06:52;;;;;;;27.67;25.13;;;19.10;39.80;;;;;;4924721;29;20461;-86
2022/03/03 10:09:19;;;;;;;29.13;26.27;;;19.70;38.80;;;;;;4945871;29;20442;-86
2022/03/03 10:12:03;;;;;;;26.73;24.33;;;20.70;38.00;;;;;;4939615;29;20867;-86
2022/03/03 10:14:33;;;;;;;26.63;24.23;;;22.30;36.70;;;;;;4937643;29;20458;-86
2022/03/03 10:17:01;;;;;;;28.67;25.93;;;22.20;35.20;;;;;;4936205;29;20458;-86
2022/03/03 10:19:28;;;;;;;26.43;24.30;;;23.60;35.10;;;;;;4934063;29;21023;-86
2022/03/03 10:21:56;;;;;;;26.40;24.00;;;24.50;33.60;;;;;;4934681;29;20498;-86
2022/03/03 10:24:26;;;;;;;26.00;23.50;;;25.30;32.30;;;;;;4934235;29;20461;-86
2022/03/03 10:27:00;;;;;;;27.40;25.00;;;26.50;31.10;;;;;;4926008;29;20465;-86
2022/03/03 10:29:28;;;;;;;26.10;23.90;;;26.90;29.90;;;;;;4925515;29;20825;-86
2022/03/03 10:31:56;;;;;;;27.10;24.50;;;28.00;29.10;;;;;;4924040;29;20454;-84
2022/03/03 10:34:27;;;;;;;24.50;22.50;;;27.90;28.40;;;;;;4918995;29;20456;-84
2022/03/03 10:37:00;;;;;;;26.13;23.83;;;28.10;27.90;;;;;;4915001;29;20458;-86
2022/03/03 10:39:39;;;;;;;24.37;22.40;;;27.70;27.90;;;;;;4921988;29;20450;-87
2022/03/03 10:42:13;;;;;;;23.07;21.17;;;27.70;27.60;;;;;;4933930;29;20449;-86
2022/03/03 10:44:40;;;;;;;25.67;23.40;;;27.60;27.30;;;;;;4938419;29;20533;-87
2022/03/03 10:47:08;;;;;;;24.17;22.03;;;26.90;27.90;;;;;;4937845;29;20450;-86
2022/03/03 10:49:37;;;;;;;24.20;22.17;;;27.70;27.70;;;;;;4938169;29;20457;-86
2022/03/03 10:52:15;;;;;;;25.47;23.37;;;26.70;27.40;;;;;;4957013;29;20444;-86
2022/03/03 10:54:53;;;;;;;26.90;24.63;;;23.90;29.70;;;;;;4951712;29;20469;-86
2022/03/03 10:57:33;;;;;;;24.90;22.77;;;24.40;30.00;;;;;;4938187;29;20985;-86
2022/03/03 11:00:01;;;;;;;26.10;23.90;;;25.40;29.70;;;;;;4937445;29;20529;-86
2022/03/03 11:02:28;;;;;;;25.63;23.33;;;26.00;28.60;;;;;;4937308;29;20465;-86
2022/03/03 11:04:55;;;;;;;25.50;23.23;;;27.20;28.20;;;;;;4937397;29;20476;-87
2022/03/03 11:07:24;;;;;;;26.50;24.20;;;28.30;27.40;;;;;;4936869;29;20485;-87
2022/03/03 11:09:51;;;;;;;25.50;23.13;;;28.60;26.70;;;;;;4937682;29;20462;-87
2022/03/03 11:12:19;;;;;;;25.67;23.60;;;29.00;25.90;;;;;;4936999;29;20458;-86
2022/03/03 11:14:46;;;;;;;24.30;22.20;;;29.10;26.00;;;;;;4937263;29;20496;-87
2022/03/03 11:17:13;;;;;;;23.50;21.47;;;29.70;25.90;;;;;;4945864;29;20467;-87
2022/03/03 11:19:41;;;;;;;24.37;22.30;;;29.80;25.30;;;;;;4940251;29;21015;-87
2022/03/03 11:22:08;;;;;;;23.77;21.83;;;30.50;25.00;;;;;;4936767;29;20454;-87
2022/03/03 11:24:39;;;;;;;24.93;22.90;;;29.90;25.00;;;;;;4937193;29;20449;-87
2022/03/03 11:27:07;;;;;;;24.13;22.17;;;29.20;25.00;;;;;;4939527;29;20457;-87
2022/03/03 11:29:38;;;;;;;23.77;21.87;;;29.50;24.70;;;;;;4937962;29;20975;-87
2022/03/03 11:32:06;;;;;;;24.27;22.37;;;29.40;24.70;;;;;;4955931;29;20466;-87
2022/03/03 11:34:49;;;;;;;23.70;21.80;;;30.30;24.70;;;;;;4937598;29;20991;-87
2022/03/03 11:37:20;;;;;;;25.83;23.60;;;30.40;24.10;;;;;;4936868;29;20514;-87
2022/03/03 11:39:53;;;;;;;26.30;24.10;;;29.80;24.10;;;;;;4937354;29;20505;-87
2022/03/03 11:42:29;;;;;;;23.83;21.83;;;29.60;24.50;;;;;;4937082;29;20460;-87
2022/03/03 11:44:58;;;;;;;26.17;24.00;;;29.50;24.30;;;;;;4940775;29;20449;-87
2022/03/03 11:47:27;;;;;;;24.97;22.70;;;29.80;24.20;;;;;;4951473;29;20453;-87
2022/03/03 11:50:08;;;;;;;23.67;21.73;;;29.20;24.70;;;;;;4939097;29;20477;-87
2022/03/03 11:52:37;;;;;;;24.50;22.20;;;29.40;24.50;;;;;;4955952;29;20440;-87
2022/03/03 11:55:28;;;;;;;25.33;23.13;;;29.30;24.60;;;;;;4959291;29;20426;-87
2022/03/03 11:57:57;;;;;;;24.50;22.60;;;29.90;24.20;;;;;;4949008;28;20463;-87
2022/03/03 12:00:24;;;;;;;24.93;22.83;;;29.70;24.40;;;;;;4959251;29;20467;-87
2022/03/03 12:02:56;;;;;;;26.37;23.97;;;29.10;23.70;;;;;;4956332;29;20446;-87
2022/03/03 12:05:34;;;;;;;23.33;21.20;;;28.00;24.70;;;;;;4945836;29;20446;-87
2022/03/03 12:08:04;;;;;;;26.83;24.37;;;27.90;24.90;;;;;;4957004;28;20494;-87
2022/03/03 12:10:33;;;;;;;25.63;23.40;;;28.00;25.20;;;;;;4957429;29;20473;-87
2022/03/03 12:13:26;;;;;;;26.67;23.40;;;28.70;25.00;;;;;;4956498;29;20434;-87
2022/03/03 12:16:18;;;;;;;25.53;23.20;;;29.10;24.50;;;;;;4952814;28;20516;-88
2022/03/03 12:18:46;;;;;;;25.27;23.27;;;28.70;24.50;;;;;;4941810;29;20523;-88
2022/03/03 12:21:24;;;;;;;26.47;24.17;;;28.80;24.80;;;;;;4940253;29;20838;-88
2022/03/03 12:24:11;;;;;;;27.90;25.10;;;29.30;24.30;;;;;;4941095;29;20816;-87
2022/03/03 12:27:06;;;;;;;26.70;24.37;;;27.70;24.60;;;;;;4940406;29;20476;-88
2022/03/03 12:29:35;;;;;;;27.67;25.07;;;28.10;25.00;;;;;;4939117;29;20555;-88
2022/03/03 12:32:37;;;;;;;27.33;24.90;;;28.70;25.10;;;;;;4932520;29;20450;-87
2022/03/03 12:35:09;;;;;;;26.30;24.20;;;28.50;24.50;;;;;;4928135;29;20445;-88
2022/03/03 12:37:41;;;;;;;29.87;27.27;;;28.40;24.50;;;;;;4932128;29;20445;-88
2022/03/03 12:40:09;;;;;;;26.83;24.63;;;28.80;24.30;;;;;;4926863;29;21013;-88
2022/03/03 12:42:38;;;;;;;27.47;25.03;;;28.50;24.40;;;;;;4930882;29;20448;-88
2022/03/03 12:45:10;;;;;;;27.90;25.53;;;28.80;24.50;;;;;;4930580;29;20465;-88